sensor_id;sensor_type;location;lat;lon;timestamp;P1;durP1;ratioP1;P2;durP2;ratioP2
22557;SDS011;11445;53.816;8.902;2023-05-27T00:00:59;16.85;;;3.63;;
22557;SDS011;11445;53.816;8.902;2023-05-27T00:03:26;19.35;;;3.67;;
22557;SDS011;11445;53.816;8.902;2023-05-27T00:05:54;21.40;;;4.50;;
22557;SDS011;11445;53.816;8.902;2023-05-27T00:08:22;29.15;;;4.72;;
22557;SDS011;11445;53.816;8.902;2023-05-27T00:10:49;21.42;;;4.18;;
22557;SDS011;11445;53.816;8.902;2023-05-27T00:13:16;21.58;;;4.85;;
22557;SDS011;11445;53.816;8.902;2023-05-27T00:15:43;19.00;;;4.72;;
22557;SDS011;11445;53.816;8.902;2023-05-27T00:18:10;19.52;;;4.45;;
22557;SDS011;11445;53.816;8.902;2023-05-27T00:20:38;22.95;;;4.22;;
22557;SDS011;11445;53.816;8.902;2023-05-27T00:23:05;20.65;;;4.50;;
22557;SDS011;11445;53.816;8.902;2023-05-27T00:25:33;27.10;;;4.75;;
22557;SDS011;11445;53.816;8.902;2023-05-27T00:28:00;19.13;;;3.78;;
22557;SDS011;11445;53.816;8.902;2023-05-27T00:30:27;17.45;;;3.97;;
22557;SDS011;11445;53.816;8.902;2023-05-27T00:32:54;23.67;;;3.95;;
22557;SDS011;11445;53.816;8.902;2023-05-27T00:35:21;24.98;;;4.80;;
22557;SDS011;11445;53.816;8.902;2023-05-27T00:37:48;21.60;;;5.25;;
22557;SDS011;11445;53.816;8.902;2023-05-27T00:40:16;20.73;;;3.83;;
22557;SDS011;11445;53.816;8.902;2023-05-27T00:42:49;31.20;;;4.85;;
22557;SDS011;11445;53.816;8.902;2023-05-27T00:45:16;20.80;;;4.43;;
22557;SDS011;11445;53.816;8.902;2023-05-27T00:47:43;18.75;;;4.20;;
22557;SDS011;11445;53.816;8.902;2023-05-27T00:50:10;21.90;;;3.83;;
22557;SDS011;11445;53.816;8.902;2023-05-27T00:52:37;19.25;;;4.03;;
22557;SDS011;11445;53.816;8.902;2023-05-27T00:55:05;28.42;;;5.03;;
22557;SDS011;11445;53.816;8.902;2023-05-27T00:57:33;17.38;;;4.00;;
22557;SDS011;11445;53.816;8.902;2023-05-27T01:00:02;17.70;;;4.32;;
22557;SDS011;11445;53.816;8.902;2023-05-27T01:02:35;21.08;;;3.95;;
22557;SDS011;11445;53.816;8.902;2023-05-27T01:05:05;20.85;;;3.35;;
22557;SDS011;11445;53.816;8.902;2023-05-27T01:07:34;15.20;;;3.75;;
22557;SDS011;11445;53.816;8.902;2023-05-27T01:10:14;16.60;;;3.42;;
22557;SDS011;11445;53.816;8.902;2023-05-27T01:12:51;14.38;;;3.65;;
22557;SDS011;11445;53.816;8.902;2023-05-27T01:15:28;23.73;;;4.18;;
22557;SDS011;11445;53.816;8.902;2023-05-27T01:17:57;21.33;;;3.47;;
22557;SDS011;11445;53.816;8.902;2023-05-27T01:20:29;11.20;;;3.33;;
22557;SDS011;11445;53.816;8.902;2023-05-27T01:22:58;17.45;;;3.95;;
22557;SDS011;11445;53.816;8.902;2023-05-27T01:25:29;21.52;;;4.30;;
22557;SDS011;11445;53.816;8.902;2023-05-27T01:27:56;12.40;;;4.25;;
22557;SDS011;11445;53.816;8.902;2023-05-27T01:30:23;15.18;;;4.32;;
22557;SDS011;11445;53.816;8.902;2023-05-27T01:32:52;21.27;;;3.80;;
22557;SDS011;11445;53.816;8.902;2023-05-27T01:35:24;15.70;;;4.20;;
22557;SDS011;11445;53.816;8.902;2023-05-27T01:37:56;17.25;;;3.85;;
22557;SDS011;11445;53.816;8.902;2023-05-27T01:40:27;21.55;;;4.10;;
22557;SDS011;11445;53.816;8.902;2023-05-27T01:42:55;21.83;;;4.20;;
22557;SDS011;11445;53.816;8.902;2023-05-27T01:45:23;21.48;;;5.10;;
22557;SDS011;11445;53.816;8.902;2023-05-27T01:47:51;17.50;;;3.90;;
22557;SDS011;11445;53.816;8.902;2023-05-27T01:50:18;16.38;;;3.85;;
22557;SDS011;11445;53.816;8.902;2023-05-27T01:52:45;13.93;;;3.40;;
22557;SDS011;11445;53.816;8.902;2023-05-27T01:55:14;18.63;;;4.13;;
22557;SDS011;11445;53.816;8.902;2023-05-27T01:57:42;17.17;;;4.15;;
22557;SDS011;11445;53.816;8.902;2023-05-27T02:00:10;28.27;;;4.43;;
22557;SDS011;11445;53.816;8.902;2023-05-27T02:02:38;22.38;;;4.43;;
22557;SDS011;11445;53.816;8.902;2023-05-27T02:05:05;19.90;;;4.38;;
22557;SDS011;11445;53.816;8.902;2023-05-27T02:07:32;16.35;;;4.50;;
22557;SDS011;11445;53.816;8.902;2023-05-27T02:09:59;19.75;;;3.85;;
22557;SDS011;11445;53.816;8.902;2023-05-27T02:12:28;12.30;;;4.20;;
22557;SDS011;11445;53.816;8.902;2023-05-27T02:14:55;18.42;;;3.53;;
22557;SDS011;11445;53.816;8.902;2023-05-27T02:17:22;18.85;;;3.97;;
22557;SDS011;11445;53.816;8.902;2023-05-27T02:19:49;15.13;;;3.45;;
22557;SDS011;11445;53.816;8.902;2023-05-27T02:22:16;19.40;;;3.70;;
22557;SDS011;11445;53.816;8.902;2023-05-27T02:24:43;15.63;;;3.35;;
22557;SDS011;11445;53.816;8.902;2023-05-27T02:27:10;20.30;;;4.30;;
22557;SDS011;11445;53.816;8.902;2023-05-27T02:29:39;22.30;;;4.13;;
22557;SDS011;11445;53.816;8.902;2023-05-27T02:32:06;26.85;;;4.13;;
22557;SDS011;11445;53.816;8.902;2023-05-27T02:34:33;14.32;;;4.63;;
22557;SDS011;11445;53.816;8.902;2023-05-27T02:37:03;17.77;;;4.10;;
22557;SDS011;11445;53.816;8.902;2023-05-27T02:39:30;22.75;;;4.38;;
22557;SDS011;11445;53.816;8.902;2023-05-27T02:41:57;28.88;;;4.05;;
22557;SDS011;11445;53.816;8.902;2023-05-27T02:44:25;20.20;;;4.03;;
22557;SDS011;11445;53.816;8.902;2023-05-27T02:46:53;21.63;;;4.53;;
22557;SDS011;11445;53.816;8.902;2023-05-27T02:49:20;26.20;;;5.25;;
22557;SDS011;11445;53.816;8.902;2023-05-27T02:51:47;20.17;;;4.60;;
22557;SDS011;11445;53.816;8.902;2023-05-27T02:54:14;22.98;;;4.40;;
22557;SDS011;11445;53.816;8.902;2023-05-27T02:56:41;26.35;;;5.32;;
22557;SDS011;11445;53.816;8.902;2023-05-27T02:59:08;18.35;;;5.18;;
22557;SDS011;11445;53.816;8.902;2023-05-27T03:01:35;20.48;;;4.47;;
22557;SDS011;11445;53.816;8.902;2023-05-27T03:04:03;19.83;;;4.70;;
22557;SDS011;11445;53.816;8.902;2023-05-27T03:06:31;23.50;;;4.57;;
22557;SDS011;11445;53.816;8.902;2023-05-27T03:08:58;14.48;;;4.80;;
22557;SDS011;11445;53.816;8.902;2023-05-27T03:11:26;26.70;;;5.18;;
22557;SDS011;11445;53.816;8.902;2023-05-27T03:13:53;21.95;;;5.13;;
22557;SDS011;11445;53.816;8.902;2023-05-27T03:16:20;19.40;;;4.28;;
22557;SDS011;11445;53.816;8.902;2023-05-27T03:18:48;25.08;;;4.97;;
22557;SDS011;11445;53.816;8.902;2023-05-27T03:21:16;22.85;;;4.15;;
22557;SDS011;11445;53.816;8.902;2023-05-27T03:23:43;31.92;;;5.55;;
22557;SDS011;11445;53.816;8.902;2023-05-27T03:26:10;25.05;;;5.13;;
22557;SDS011;11445;53.816;8.902;2023-05-27T03:28:38;29.77;;;5.50;;
22557;SDS011;11445;53.816;8.902;2023-05-27T03:31:05;27.60;;;5.22;;
22557;SDS011;11445;53.816;8.902;2023-05-27T03:33:33;24.50;;;4.47;;
22557;SDS011;11445;53.816;8.902;2023-05-27T03:36:01;23.63;;;4.70;;
22557;SDS011;11445;53.816;8.902;2023-05-27T03:38:29;36.30;;;4.97;;
22557;SDS011;11445;53.816;8.902;2023-05-27T03:40:56;17.08;;;4.30;;
22557;SDS011;11445;53.816;8.902;2023-05-27T03:43:23;28.65;;;5.43;;
22557;SDS011;11445;53.816;8.902;2023-05-27T03:45:50;30.13;;;5.00;;
22557;SDS011;11445;53.816;8.902;2023-05-27T03:48:17;22.23;;;4.97;;
22557;SDS011;11445;53.816;8.902;2023-05-27T03:50:45;27.83;;;4.05;;
22557;SDS011;11445;53.816;8.902;2023-05-27T03:53:12;23.05;;;4.50;;
22557;SDS011;11445;53.816;8.902;2023-05-27T03:55:40;30.73;;;4.95;;
22557;SDS011;11445;53.816;8.902;2023-05-27T03:58:07;24.13;;;4.28;;
22557;SDS011;11445;53.816;8.902;2023-05-27T04:00:38;27.95;;;5.68;;
22557;SDS011;11445;53.816;8.902;2023-05-27T04:03:06;25.67;;;4.55;;
22557;SDS011;11445;53.816;8.902;2023-05-27T04:05:33;28.33;;;4.68;;
22557;SDS011;11445;53.816;8.902;2023-05-27T04:08:01;32.45;;;5.55;;
22557;SDS011;11445;53.816;8.902;2023-05-27T04:10:29;25.27;;;5.63;;
22557;SDS011;11445;53.816;8.902;2023-05-27T04:12:58;34.92;;;5.85;;
22557;SDS011;11445;53.816;8.902;2023-05-27T04:15:25;30.45;;;5.75;;
22557;SDS011;11445;53.816;8.902;2023-05-27T04:17:52;33.08;;;4.93;;
22557;SDS011;11445;53.816;8.902;2023-05-27T04:20:19;37.70;;;5.20;;
22557;SDS011;11445;53.816;8.902;2023-05-27T04:22:46;20.80;;;4.35;;
22557;SDS011;11445;53.816;8.902;2023-05-27T04:25:13;31.25;;;5.57;;
22557;SDS011;11445;53.816;8.902;2023-05-27T04:27:40;29.35;;;5.18;;
22557;SDS011;11445;53.816;8.902;2023-05-27T04:30:09;23.17;;;4.75;;
22557;SDS011;11445;53.816;8.902;2023-05-27T04:32:37;27.50;;;5.50;;
22557;SDS011;11445;53.816;8.902;2023-05-27T04:35:05;26.15;;;4.85;;
22557;SDS011;11445;53.816;8.902;2023-05-27T04:37:34;26.48;;;5.10;;
22557;SDS011;11445;53.816;8.902;2023-05-27T04:40:02;35.95;;;5.60;;
22557;SDS011;11445;53.816;8.902;2023-05-27T04:42:31;25.23;;;4.80;;
22557;SDS011;11445;53.816;8.902;2023-05-27T04:45:01;29.98;;;4.90;;
22557;SDS011;11445;53.816;8.902;2023-05-27T04:47:30;23.15;;;5.07;;
22557;SDS011;11445;53.816;8.902;2023-05-27T04:49:57;25.25;;;5.05;;
22557;SDS011;11445;53.816;8.902;2023-05-27T04:52:25;25.90;;;4.70;;
22557;SDS011;11445;53.816;8.902;2023-05-27T04:54:53;23.40;;;4.72;;
22557;SDS011;11445;53.816;8.902;2023-05-27T04:57:20;26.85;;;4.90;;
22557;SDS011;11445;53.816;8.902;2023-05-27T04:59:48;18.00;;;4.45;;
22557;SDS011;11445;53.816;8.902;2023-05-27T05:02:44;26.55;;;4.60;;
22557;SDS011;11445;53.816;8.902;2023-05-27T05:05:13;33.97;;;5.20;;
22557;SDS011;11445;53.816;8.902;2023-05-27T05:07:40;33.40;;;5.70;;
22557;SDS011;11445;53.816;8.902;2023-05-27T05:10:08;23.58;;;5.10;;
22557;SDS011;11445;53.816;8.902;2023-05-27T05:12:36;31.90;;;5.10;;
22557;SDS011;11445;53.816;8.902;2023-05-27T05:15:04;28.77;;;4.85;;
22557;SDS011;11445;53.816;8.902;2023-05-27T05:17:33;23.30;;;4.82;;
22557;SDS011;11445;53.816;8.902;2023-05-27T05:20:01;33.22;;;5.00;;
22557;SDS011;11445;53.816;8.902;2023-05-27T05:22:30;32.88;;;6.05;;
22557;SDS011;11445;53.816;8.902;2023-05-27T05:24:58;26.98;;;4.72;;
22557;SDS011;11445;53.816;8.902;2023-05-27T05:27:25;26.58;;;4.75;;
22557;SDS011;11445;53.816;8.902;2023-05-27T05:29:53;24.67;;;4.97;;
22557;SDS011;11445;53.816;8.902;2023-05-27T05:32:20;33.72;;;5.32;;
22557;SDS011;11445;53.816;8.902;2023-05-27T05:34:47;27.88;;;4.70;;
22557;SDS011;11445;53.816;8.902;2023-05-27T05:37:15;27.80;;;5.85;;
22557;SDS011;11445;53.816;8.902;2023-05-27T05:39:42;32.65;;;4.65;;
22557;SDS011;11445;53.816;8.902;2023-05-27T05:42:09;24.20;;;4.43;;
22557;SDS011;11445;53.816;8.902;2023-05-27T05:44:36;26.38;;;5.25;;
22557;SDS011;11445;53.816;8.902;2023-05-27T05:47:04;26.60;;;4.65;;
22557;SDS011;11445;53.816;8.902;2023-05-27T05:49:31;32.30;;;5.28;;
22557;SDS011;11445;53.816;8.902;2023-05-27T05:51:58;21.48;;;4.32;;
22557;SDS011;11445;53.816;8.902;2023-05-27T05:54:27;29.08;;;5.50;;
22557;SDS011;11445;53.816;8.902;2023-05-27T05:56:54;22.92;;;4.93;;
22557;SDS011;11445;53.816;8.902;2023-05-27T05:59:21;26.63;;;5.82;;
22557;SDS011;11445;53.816;8.902;2023-05-27T06:01:48;21.60;;;4.38;;
22557;SDS011;11445;53.816;8.902;2023-05-27T06:04:15;38.60;;;4.97;;
22557;SDS011;11445;53.816;8.902;2023-05-27T06:06:42;24.98;;;5.72;;
22557;SDS011;11445;53.816;8.902;2023-05-27T06:09:09;25.67;;;4.35;;
22557;SDS011;11445;53.816;8.902;2023-05-27T06:11:38;30.98;;;5.05;;
22557;SDS011;11445;53.816;8.902;2023-05-27T06:14:05;22.67;;;4.78;;
22557;SDS011;11445;53.816;8.902;2023-05-27T06:16:32;17.95;;;3.92;;
22557;SDS011;11445;53.816;8.902;2023-05-27T06:19:00;32.47;;;4.47;;
22557;SDS011;11445;53.816;8.902;2023-05-27T06:21:27;26.40;;;5.40;;
22557;SDS011;11445;53.816;8.902;2023-05-27T06:23:57;22.73;;;4.82;;
22557;SDS011;11445;53.816;8.902;2023-05-27T06:26:24;15.05;;;4.47;;
22557;SDS011;11445;53.816;8.902;2023-05-27T06:28:53;23.23;;;4.85;;
22557;SDS011;11445;53.816;8.902;2023-05-27T06:31:20;24.88;;;5.18;;
22557;SDS011;11445;53.816;8.902;2023-05-27T06:33:47;26.65;;;4.60;;
22557;SDS011;11445;53.816;8.902;2023-05-27T06:36:14;26.45;;;5.07;;
22557;SDS011;11445;53.816;8.902;2023-05-27T06:38:41;28.27;;;5.05;;
22557;SDS011;11445;53.816;8.902;2023-05-27T06:41:08;24.55;;;4.57;;
22557;SDS011;11445;53.816;8.902;2023-05-27T06:43:35;19.98;;;5.18;;
22557;SDS011;11445;53.816;8.902;2023-05-27T06:46:04;31.83;;;5.80;;
22557;SDS011;11445;53.816;8.902;2023-05-27T06:48:31;20.42;;;5.00;;
22557;SDS011;11445;53.816;8.902;2023-05-27T06:50:58;27.98;;;5.82;;
22557;SDS011;11445;53.816;8.902;2023-05-27T06:53:26;18.20;;;4.90;;
22557;SDS011;11445;53.816;8.902;2023-05-27T06:55:53;26.70;;;5.18;;
22557;SDS011;11445;53.816;8.902;2023-05-27T06:58:20;25.02;;;5.82;;
22557;SDS011;11445;53.816;8.902;2023-05-27T07:00:47;27.42;;;5.05;;
22557;SDS011;11445;53.816;8.902;2023-05-27T07:03:15;27.08;;;5.50;;
22557;SDS011;11445;53.816;8.902;2023-05-27T07:05:43;31.77;;;5.97;;
22557;SDS011;11445;53.816;8.902;2023-05-27T07:08:10;29.10;;;5.40;;
22557;SDS011;11445;53.816;8.902;2023-05-27T07:10:38;30.92;;;4.80;;
22557;SDS011;11445;53.816;8.902;2023-05-27T07:13:06;26.58;;;5.40;;
22557;SDS011;11445;53.816;8.902;2023-05-27T07:15:33;33.58;;;6.50;;
22557;SDS011;11445;53.816;8.902;2023-05-27T07:18:00;22.70;;;5.53;;
22557;SDS011;11445;53.816;8.902;2023-05-27T07:20:28;18.80;;;4.45;;
22557;SDS011;11445;53.816;8.902;2023-05-27T07:22:55;22.73;;;4.63;;
22557;SDS011;11445;53.816;8.902;2023-05-27T07:25:23;23.90;;;5.05;;
22557;SDS011;11445;53.816;8.902;2023-05-27T07:27:51;18.48;;;4.93;;
22557;SDS011;11445;53.816;8.902;2023-05-27T07:30:18;24.52;;;4.97;;
22557;SDS011;11445;53.816;8.902;2023-05-27T07:32:45;18.10;;;4.43;;
22557;SDS011;11445;53.816;8.902;2023-05-27T07:35:12;19.90;;;5.15;;
22557;SDS011;11445;53.816;8.902;2023-05-27T07:37:41;29.02;;;5.65;;
22557;SDS011;11445;53.816;8.902;2023-05-27T07:40:08;20.38;;;4.93;;
22557;SDS011;11445;53.816;8.902;2023-05-27T07:42:36;24.63;;;5.28;;
22557;SDS011;11445;53.816;8.902;2023-05-27T07:45:03;26.38;;;5.43;;
22557;SDS011;11445;53.816;8.902;2023-05-27T07:47:31;24.90;;;5.53;;
22557;SDS011;11445;53.816;8.902;2023-05-27T07:49:58;26.05;;;5.05;;
22557;SDS011;11445;53.816;8.902;2023-05-27T07:52:25;26.25;;;5.55;;
22557;SDS011;11445;53.816;8.902;2023-05-27T07:54:53;17.73;;;4.90;;
22557;SDS011;11445;53.816;8.902;2023-05-27T07:57:22;18.88;;;4.97;;
22557;SDS011;11445;53.816;8.902;2023-05-27T07:59:49;30.40;;;5.40;;
22557;SDS011;11445;53.816;8.902;2023-05-27T08:02:16;26.88;;;5.28;;
22557;SDS011;11445;53.816;8.902;2023-05-27T08:04:44;28.60;;;5.57;;
22557;SDS011;11445;53.816;8.902;2023-05-27T08:07:11;24.13;;;5.10;;
22557;SDS011;11445;53.816;8.902;2023-05-27T08:09:39;22.63;;;5.32;;
22557;SDS011;11445;53.816;8.902;2023-05-27T08:12:07;27.85;;;5.85;;
22557;SDS011;11445;53.816;8.902;2023-05-27T08:14:34;28.23;;;6.57;;
22557;SDS011;11445;53.816;8.902;2023-05-27T08:17:01;25.90;;;6.65;;
22557;SDS011;11445;53.816;8.902;2023-05-27T08:19:28;19.73;;;5.78;;
22557;SDS011;11445;53.816;8.902;2023-05-27T08:21:56;21.83;;;5.20;;
22557;SDS011;11445;53.816;8.902;2023-05-27T08:24:23;23.20;;;5.68;;
22557;SDS011;11445;53.816;8.902;2023-05-27T08:26:50;19.88;;;5.32;;
22557;SDS011;11445;53.816;8.902;2023-05-27T08:29:18;25.88;;;5.72;;
22557;SDS011;11445;53.816;8.902;2023-05-27T08:31:45;18.50;;;5.15;;
22557;SDS011;11445;53.816;8.902;2023-05-27T08:34:13;22.88;;;5.50;;
22557;SDS011;11445;53.816;8.902;2023-05-27T08:36:40;29.35;;;5.80;;
22557;SDS011;11445;53.816;8.902;2023-05-27T08:39:07;28.73;;;5.88;;
22557;SDS011;11445;53.816;8.902;2023-05-27T08:41:34;18.83;;;5.13;;
22557;SDS011;11445;53.816;8.902;2023-05-27T08:44:02;20.75;;;5.63;;
22557;SDS011;11445;53.816;8.902;2023-05-27T08:46:32;23.10;;;5.47;;
22557;SDS011;11445;53.816;8.902;2023-05-27T08:48:59;23.85;;;5.63;;
22557;SDS011;11445;53.816;8.902;2023-05-27T08:51:27;18.58;;;5.13;;
22557;SDS011;11445;53.816;8.902;2023-05-27T08:53:54;22.50;;;5.72;;
22557;SDS011;11445;53.816;8.902;2023-05-27T08:56:21;24.10;;;5.65;;
22557;SDS011;11445;53.816;8.902;2023-05-27T08:58:50;18.25;;;6.22;;
22557;SDS011;11445;53.816;8.902;2023-05-27T09:01:19;28.10;;;6.30;;
22557;SDS011;11445;53.816;8.902;2023-05-27T09:03:49;24.30;;;5.50;;
22557;SDS011;11445;53.816;8.902;2023-05-27T09:06:16;15.38;;;5.05;;
22557;SDS011;11445;53.816;8.902;2023-05-27T09:08:43;23.33;;;5.57;;
22557;SDS011;11445;53.816;8.902;2023-05-27T09:11:18;28.95;;;6.18;;
22557;SDS011;11445;53.816;8.902;2023-05-27T09:13:46;24.60;;;5.63;;
22557;SDS011;11445;53.816;8.902;2023-05-27T09:16:14;20.90;;;5.28;;
22557;SDS011;11445;53.816;8.902;2023-05-27T09:18:45;28.90;;;7.05;;
22557;SDS011;11445;53.816;8.902;2023-05-27T09:21:14;27.42;;;6.32;;
22557;SDS011;11445;53.816;8.902;2023-05-27T09:23:41;28.35;;;5.85;;
22557;SDS011;11445;53.816;8.902;2023-05-27T09:26:08;23.33;;;6.40;;
22557;SDS011;11445;53.816;8.902;2023-05-27T09:28:36;18.17;;;5.65;;
22557;SDS011;11445;53.816;8.902;2023-05-27T09:31:04;26.20;;;5.53;;
22557;SDS011;11445;53.816;8.902;2023-05-27T09:33:33;19.80;;;5.68;;
22557;SDS011;11445;53.816;8.902;2023-05-27T09:36:03;15.95;;;4.57;;
22557;SDS011;11445;53.816;8.902;2023-05-27T09:38:33;27.05;;;6.55;;
22557;SDS011;11445;53.816;8.902;2023-05-27T09:41:01;19.67;;;5.13;;
22557;SDS011;11445;53.816;8.902;2023-05-27T09:43:29;20.08;;;5.03;;
22557;SDS011;11445;53.816;8.902;2023-05-27T09:45:58;21.15;;;5.72;;
22557;SDS011;11445;53.816;8.902;2023-05-27T09:48:26;21.05;;;5.45;;
22557;SDS011;11445;53.816;8.902;2023-05-27T09:50:56;20.58;;;6.05;;
22557;SDS011;11445;53.816;8.902;2023-05-27T09:53:25;20.73;;;6.40;;
22557;SDS011;11445;53.816;8.902;2023-05-27T09:55:54;21.45;;;5.30;;
22557;SDS011;11445;53.816;8.902;2023-05-27T09:58:22;22.90;;;5.45;;
22557;SDS011;11445;53.816;8.902;2023-05-27T10:00:50;21.02;;;5.95;;
22557;SDS011;11445;53.816;8.902;2023-05-27T10:03:19;27.42;;;4.95;;
22557;SDS011;11445;53.816;8.902;2023-05-27T10:05:48;17.42;;;5.28;;
22557;SDS011;11445;53.816;8.902;2023-05-27T10:08:17;22.15;;;4.75;;
22557;SDS011;11445;53.816;8.902;2023-05-27T10:10:44;22.70;;;5.32;;
22557;SDS011;11445;53.816;8.902;2023-05-27T10:13:13;23.88;;;6.35;;
22557;SDS011;11445;53.816;8.902;2023-05-27T10:15:45;26.42;;;5.95;;
22557;SDS011;11445;53.816;8.902;2023-05-27T10:18:21;25.60;;;5.80;;
22557;SDS011;11445;53.816;8.902;2023-05-27T10:20:49;17.92;;;4.93;;
22557;SDS011;11445;53.816;8.902;2023-05-27T10:23:18;18.08;;;5.25;;
22557;SDS011;11445;53.816;8.902;2023-05-27T10:25:47;22.45;;;4.70;;
22557;SDS011;11445;53.816;8.902;2023-05-27T10:28:26;18.92;;;5.40;;
22557;SDS011;11445;53.816;8.902;2023-05-27T10:31:02;17.40;;;4.88;;
22557;SDS011;11445;53.816;8.902;2023-05-27T10:33:31;22.92;;;4.70;;
22557;SDS011;11445;53.816;8.902;2023-05-27T10:36:04;26.20;;;5.57;;
22557;SDS011;11445;53.816;8.902;2023-05-27T10:38:34;24.40;;;4.85;;
22557;SDS011;11445;53.816;8.902;2023-05-27T10:41:02;17.38;;;4.70;;
22557;SDS011;11445;53.816;8.902;2023-05-27T10:43:32;25.50;;;4.57;;
22557;SDS011;11445;53.816;8.902;2023-05-27T10:46:03;16.95;;;4.72;;
22557;SDS011;11445;53.816;8.902;2023-05-27T10:48:31;15.77;;;4.90;;
22557;SDS011;11445;53.816;8.902;2023-05-27T10:50:59;16.15;;;4.20;;
22557;SDS011;11445;53.816;8.902;2023-05-27T10:53:28;22.30;;;5.35;;
22557;SDS011;11445;53.816;8.902;2023-05-27T10:55:57;20.65;;;4.38;;
22557;SDS011;11445;53.816;8.902;2023-05-27T10:58:25;16.70;;;4.18;;
22557;SDS011;11445;53.816;8.902;2023-05-27T11:00:54;19.45;;;5.15;;
22557;SDS011;11445;53.816;8.902;2023-05-27T11:03:22;17.83;;;4.53;;
22557;SDS011;11445;53.816;8.902;2023-05-27T11:05:58;15.48;;;4.00;;
22557;SDS011;11445;53.816;8.902;2023-05-27T11:08:26;15.85;;;3.95;;
22557;SDS011;11445;53.816;8.902;2023-05-27T11:10:57;23.85;;;4.72;;
22557;SDS011;11445;53.816;8.902;2023-05-27T11:13:31;21.20;;;4.97;;
22557;SDS011;11445;53.816;8.902;2023-05-27T11:16:00;18.88;;;4.18;;
22557;SDS011;11445;53.816;8.902;2023-05-27T11:18:39;23.05;;;4.03;;
22557;SDS011;11445;53.816;8.902;2023-05-27T11:21:07;16.85;;;3.97;;
22557;SDS011;11445;53.816;8.902;2023-05-27T11:23:36;12.57;;;3.22;;
22557;SDS011;11445;53.816;8.902;2023-05-27T11:26:11;16.53;;;3.97;;
22557;SDS011;11445;53.816;8.902;2023-05-27T11:28:48;14.88;;;4.05;;
22557;SDS011;11445;53.816;8.902;2023-05-27T11:31:17;14.65;;;4.03;;
22557;SDS011;11445;53.816;8.902;2023-05-27T11:33:46;19.77;;;4.18;;
22557;SDS011;11445;53.816;8.902;2023-05-27T11:36:15;15.38;;;3.83;;
22557;SDS011;11445;53.816;8.902;2023-05-27T11:38:46;9.27;;;3.35;;
22557;SDS011;11445;53.816;8.902;2023-05-27T11:41:17;15.40;;;3.85;;
22557;SDS011;11445;53.816;8.902;2023-05-27T11:43:51;14.05;;;3.13;;
22557;SDS011;11445;53.816;8.902;2023-05-27T11:46:23;17.92;;;3.90;;
22557;SDS011;11445;53.816;8.902;2023-05-27T11:48:59;14.80;;;3.80;;
22557;SDS011;11445;53.816;8.902;2023-05-27T11:51:27;13.57;;;3.60;;
22557;SDS011;11445;53.816;8.902;2023-05-27T11:53:55;11.48;;;3.58;;
22557;SDS011;11445;53.816;8.902;2023-05-27T11:56:24;14.98;;;3.58;;
22557;SDS011;11445;53.816;8.902;2023-05-27T11:58:52;15.50;;;2.92;;
22557;SDS011;11445;53.816;8.902;2023-05-27T12:01:19;11.98;;;2.80;;
22557;SDS011;11445;53.816;8.902;2023-05-27T12:03:47;11.63;;;3.25;;
22557;SDS011;11445;53.816;8.902;2023-05-27T12:06:14;17.42;;;4.05;;
22557;SDS011;11445;53.816;8.902;2023-05-27T12:08:42;16.92;;;2.97;;
22557;SDS011;11445;53.816;8.902;2023-05-27T12:11:10;11.52;;;3.08;;
22557;SDS011;11445;53.816;8.902;2023-05-27T12:13:37;15.57;;;3.47;;
22557;SDS011;11445;53.816;8.902;2023-05-27T12:16:04;14.68;;;4.10;;
22557;SDS011;11445;53.816;8.902;2023-05-27T12:18:31;12.45;;;3.65;;
22557;SDS011;11445;53.816;8.902;2023-05-27T12:21:00;10.43;;;3.10;;
22557;SDS011;11445;53.816;8.902;2023-05-27T12:23:27;17.80;;;3.78;;
22557;SDS011;11445;53.816;8.902;2023-05-27T12:25:54;15.57;;;3.47;;
22557;SDS011;11445;53.816;8.902;2023-05-27T12:28:21;22.70;;;3.75;;
22557;SDS011;11445;53.816;8.902;2023-05-27T12:30:49;21.50;;;4.40;;
22557;SDS011;11445;53.816;8.902;2023-05-27T12:33:16;21.15;;;3.65;;
22557;SDS011;11445;53.816;8.902;2023-05-27T12:35:43;13.65;;;3.60;;
22557;SDS011;11445;53.816;8.902;2023-05-27T12:38:11;12.57;;;3.55;;
22557;SDS011;11445;53.816;8.902;2023-05-27T12:40:38;14.00;;;3.35;;
22557;SDS011;11445;53.816;8.902;2023-05-27T12:43:05;11.73;;;3.63;;
22557;SDS011;11445;53.816;8.902;2023-05-27T12:45:32;12.23;;;3.70;;
22557;SDS011;11445;53.816;8.902;2023-05-27T12:47:59;14.48;;;3.65;;
22557;SDS011;11445;53.816;8.902;2023-05-27T12:50:27;22.23;;;3.75;;
22557;SDS011;11445;53.816;8.902;2023-05-27T12:52:54;14.05;;;2.92;;
22557;SDS011;11445;53.816;8.902;2023-05-27T12:55:22;10.68;;;3.10;;
22557;SDS011;11445;53.816;8.902;2023-05-27T12:57:50;16.45;;;3.55;;
22557;SDS011;11445;53.816;8.902;2023-05-27T13:00:19;15.60;;;3.50;;
22557;SDS011;11445;53.816;8.902;2023-05-27T13:02:46;12.05;;;3.30;;
22557;SDS011;11445;53.816;8.902;2023-05-27T13:05:14;14.68;;;3.60;;
22557;SDS011;11445;53.816;8.902;2023-05-27T13:07:52;12.95;;;3.63;;
22557;SDS011;11445;53.816;8.902;2023-05-27T13:10:20;11.75;;;3.20;;
22557;SDS011;11445;53.816;8.902;2023-05-27T13:12:49;15.48;;;4.00;;
22557;SDS011;11445;53.816;8.902;2023-05-27T13:15:16;20.27;;;3.83;;
22557;SDS011;11445;53.816;8.902;2023-05-27T13:17:44;15.02;;;3.55;;
22557;SDS011;11445;53.816;8.902;2023-05-27T13:20:11;15.48;;;3.50;;
22557;SDS011;11445;53.816;8.902;2023-05-27T13:22:39;10.88;;;3.20;;
22557;SDS011;11445;53.816;8.902;2023-05-27T13:25:08;11.63;;;3.40;;
22557;SDS011;11445;53.816;8.902;2023-05-27T13:27:36;13.35;;;3.75;;
22557;SDS011;11445;53.816;8.902;2023-05-27T13:30:05;11.65;;;3.42;;
22557;SDS011;11445;53.816;8.902;2023-05-27T13:32:33;17.58;;;4.28;;
22557;SDS011;11445;53.816;8.902;2023-05-27T13:35:00;15.05;;;4.15;;
22557;SDS011;11445;53.816;8.902;2023-05-27T13:37:28;15.75;;;3.80;;
22557;SDS011;11445;53.816;8.902;2023-05-27T13:39:55;11.55;;;3.60;;
22557;SDS011;11445;53.816;8.902;2023-05-27T13:42:23;11.13;;;3.70;;
22557;SDS011;11445;53.816;8.902;2023-05-27T13:44:50;14.30;;;4.03;;
22557;SDS011;11445;53.816;8.902;2023-05-27T13:47:18;13.25;;;3.53;;
22557;SDS011;11445;53.816;8.902;2023-05-27T13:49:46;10.20;;;3.28;;
22557;SDS011;11445;53.816;8.902;2023-05-27T13:52:13;13.95;;;4.47;;
22557;SDS011;11445;53.816;8.902;2023-05-27T13:54:40;11.43;;;4.63;;
22557;SDS011;11445;53.816;8.902;2023-05-27T13:57:07;11.48;;;3.53;;
22557;SDS011;11445;53.816;8.902;2023-05-27T13:59:34;16.75;;;3.97;;
22557;SDS011;11445;53.816;8.902;2023-05-27T14:02:01;27.02;;;4.22;;
22557;SDS011;11445;53.816;8.902;2023-05-27T14:04:32;10.82;;;3.70;;
22557;SDS011;11445;53.816;8.902;2023-05-27T14:06:59;11.27;;;3.83;;
22557;SDS011;11445;53.816;8.902;2023-05-27T14:09:26;16.33;;;3.92;;
22557;SDS011;11445;53.816;8.902;2023-05-27T14:11:53;11.88;;;3.50;;
22557;SDS011;11445;53.816;8.902;2023-05-27T14:14:22;13.18;;;3.85;;
22557;SDS011;11445;53.816;8.902;2023-05-27T14:16:49;12.90;;;4.22;;
22557;SDS011;11445;53.816;8.902;2023-05-27T14:19:16;13.65;;;4.65;;
22557;SDS011;11445;53.816;8.902;2023-05-27T14:21:46;12.93;;;4.38;;
22557;SDS011;11445;53.816;8.902;2023-05-27T14:24:13;10.52;;;4.00;;
22557;SDS011;11445;53.816;8.902;2023-05-27T14:26:41;16.27;;;4.57;;
22557;SDS011;11445;53.816;8.902;2023-05-27T14:29:08;10.70;;;4.20;;
22557;SDS011;11445;53.816;8.902;2023-05-27T14:31:35;13.10;;;4.22;;
22557;SDS011;11445;53.816;8.902;2023-05-27T14:34:02;14.30;;;4.50;;
22557;SDS011;11445;53.816;8.902;2023-05-27T14:36:29;12.18;;;4.07;;
22557;SDS011;11445;53.816;8.902;2023-05-27T14:38:58;20.42;;;4.88;;